createdAt,value
2018-08-27T00:00:15.183Z,15.03
2018-08-27T00:01:15.216Z,15.11
2018-08-27T00:02:15.250Z,15.02
2018-08-27T00:03:15.282Z,15.11
2018-08-27T00:04:15.316Z,14.96
2018-08-27T00:05:15.348Z,15.01
2018-08-27T00:06:15.381Z,14.95
2018-08-27T00:07:15.418Z,14.96
2018-08-27T00:08:15.449Z,15.01
2018-08-27T00:09:15.480Z,15.09
2018-08-27T00:10:15.514Z,15.01
2018-08-27T00:11:15.548Z,14.83
2018-08-27T00:12:15.581Z,14.91
2018-08-27T00:13:15.613Z,14.84
2018-08-27T00:14:15.647Z,14.94
2018-08-27T00:15:15.680Z,14.92
2018-08-27T00:16:15.713Z,14.98
2018-08-27T00:17:15.748Z,14.98
2018-08-27T00:18:15.778Z,15.01
2018-08-27T00:19:15.812Z,15.03
2018-08-27T00:20:15.845Z,14.95
2018-08-27T00:21:15.878Z,14.96
2018-08-27T00:22:15.911Z,14.99
2018-08-27T00:23:15.943Z,14.96
2018-08-27T00:24:15.979Z,14.84
2018-08-27T00:25:16.010Z,14.92
2018-08-27T00:26:16.043Z,14.84
2018-08-27T00:27:16.081Z,14.80
2018-08-27T00:28:16.110Z,14.80
2018-08-27T00:29:16.143Z,14.75
2018-08-27T00:30:16.178Z,14.72
2018-08-27T00:31:16.210Z,14.65
2018-08-27T00:32:16.243Z,14.68
2018-08-27T00:33:16.275Z,14.62
2018-08-27T00:34:16.309Z,14.58
2018-08-27T00:35:16.341Z,14.52
2018-08-27T00:36:16.375Z,14.64
2018-08-27T00:37:16.407Z,14.70
2018-08-27T00:38:16.441Z,14.72
2018-08-27T00:39:16.475Z,14.81
2018-08-27T00:40:16.506Z,14.83
2018-08-27T00:41:16.541Z,14.94
2018-08-27T00:42:16.573Z,15.01
2018-08-27T00:43:16.607Z,14.99
2018-08-27T00:44:16.645Z,15.06
2018-08-27T00:45:16.674Z,15.16
2018-08-27T00:46:16.706Z,15.11
2018-08-27T00:47:16.739Z,15.27
2018-08-27T00:48:16.773Z,15.27
2018-08-27T00:49:16.804Z,15.23
2018-08-27T00:50:16.838Z,15.32
2018-08-27T00:51:16.871Z,15.27
2018-08-27T00:52:16.904Z,15.27
2018-08-27T00:53:16.939Z,15.19
2018-08-27T00:54:16.971Z,15.13
2018-08-27T00:55:17.004Z,15.14
2018-08-27T00:56:17.040Z,15.27
2018-08-27T00:57:17.069Z,15.20
2018-08-27T00:58:17.103Z,15.20
2018-08-27T00:59:17.137Z,15.28
2018-08-27T01:00:17.169Z,15.20
2018-08-27T01:01:17.203Z,15.25
2018-08-27T01:02:17.236Z,15.28
2018-08-27T01:03:17.270Z,15.23
2018-08-27T01:04:17.305Z,15.27
2018-08-27T01:05:17.334Z,15.35
2018-08-27T01:06:17.367Z,15.27
2018-08-27T01:07:17.402Z,15.25
2018-08-27T01:08:17.435Z,15.29
2018-08-27T01:09:17.468Z,15.23
2018-08-27T01:10:17.500Z,15.14
2018-08-27T01:11:17.535Z,15.17
2018-08-27T01:12:17.568Z,15.13
2018-08-27T01:13:17.600Z,15.14
2018-08-27T01:14:17.633Z,15.11
2018-08-27T01:15:17.666Z,15.16
2018-08-27T01:16:17.700Z,15.14
2018-08-27T01:17:17.731Z,15.16
2018-08-27T01:18:17.768Z,15.11
2018-08-27T01:19:17.799Z,15.14
2018-08-27T01:20:17.830Z,15.14
2018-08-27T01:21:17.864Z,14.98
2018-08-27T01:22:17.897Z,15.01
2018-08-27T01:23:17.930Z,15.11
2018-08-27T01:24:17.965Z,15.11
2018-08-27T01:25:17.996Z,15.06
2018-08-27T01:26:18.030Z,14.92
2018-08-27T01:27:18.063Z,15.02
2018-08-27T01:28:18.095Z,15.02
2018-08-27T01:29:18.128Z,15.01
2018-08-27T01:30:18.162Z,15.13
2018-08-27T01:31:18.194Z,15.16
2018-08-27T01:32:18.229Z,15.07
2018-08-27T01:33:18.260Z,15.16
2018-08-27T01:34:18.294Z,15.07
2018-08-27T01:35:18.327Z,15.07
2018-08-27T01:36:18.360Z,15.06
2018-08-27T01:37:18.394Z,14.98
2018-08-27T01:38:18.429Z,14.86
2018-08-27T01:39:18.459Z,14.88
2018-08-27T01:40:18.495Z,14.92
2018-08-27T01:41:18.527Z,14.88
2018-08-27T01:42:18.558Z,14.88
2018-08-27T01:43:18.592Z,14.81
2018-08-27T01:44:18.626Z,14.89
2018-08-27T01:45:18.657Z,14.99
2018-08-27T01:46:18.690Z,14.96
2018-08-27T01:47:18.724Z,15.07
2018-08-27T01:48:18.757Z,15.07
2018-08-27T01:49:18.789Z,15.06
2018-08-27T01:50:18.823Z,15.01
2018-08-27T01:51:18.856Z,14.98
2018-08-27T01:52:18.890Z,14.96
2018-08-27T01:53:18.923Z,14.89
2018-08-27T01:54:18.954Z,14.80
2018-08-27T01:55:18.988Z,14.80
2018-08-27T01:56:19.021Z,14.72
2018-08-27T01:57:19.054Z,14.75
2018-08-27T01:58:19.088Z,14.75
2018-08-27T01:59:19.121Z,14.70
2018-08-27T02:00:19.154Z,14.68
2018-08-27T02:01:19.188Z,14.65
2018-08-27T02:02:19.219Z,14.77
2018-08-27T02:03:19.253Z,14.64
2018-08-27T02:04:19.288Z,14.70
2018-08-27T02:05:19.317Z,14.72
2018-08-27T02:06:19.351Z,14.73
2018-08-27T02:07:19.386Z,14.80
2018-08-27T02:08:19.417Z,14.73
2018-08-27T02:09:19.452Z,14.86
2018-08-27T02:10:19.484Z,14.89
2018-08-27T02:11:19.517Z,14.77
2018-08-27T02:12:19.551Z,14.73
2018-08-27T02:13:19.583Z,14.84
2018-08-27T02:14:19.615Z,14.83
2018-08-27T02:15:19.650Z,14.72
2018-08-27T02:16:19.683Z,14.68
2018-08-27T02:17:19.717Z,14.70
2018-08-27T02:18:19.749Z,14.77
2018-08-27T02:19:19.781Z,14.72
2018-08-27T02:20:19.816Z,14.77
2018-08-27T02:21:19.849Z,14.81
2018-08-27T02:22:19.880Z,14.77
2018-08-27T02:23:19.918Z,14.72
2018-08-27T02:24:19.949Z,14.89
2018-08-27T02:25:19.980Z,14.83
2018-08-27T02:26:20.014Z,14.81
2018-08-27T02:27:20.047Z,14.83
2018-08-27T02:28:20.079Z,14.72
2018-08-27T02:29:20.114Z,14.75
2018-08-27T02:30:20.146Z,14.69
2018-08-27T02:31:20.188Z,14.69
2018-08-27T02:32:20.265Z,14.60
2018-08-27T02:33:20.292Z,14.55
2018-08-27T02:34:20.279Z,14.61
2018-08-27T02:35:20.312Z,14.62
2018-08-27T02:36:20.345Z,14.60
2018-08-27T02:37:20.377Z,14.46
2018-08-27T02:38:20.411Z,14.62
2018-08-27T02:39:20.444Z,14.61
2018-08-27T02:40:20.479Z,14.70
2018-08-27T02:41:20.510Z,14.72
2018-08-27T02:42:20.542Z,14.88
2018-08-27T02:43:20.578Z,14.89
2018-08-27T02:44:20.610Z,14.91
2018-08-27T02:45:20.646Z,14.92
2018-08-27T02:46:20.676Z,14.96
2018-08-27T02:47:20.709Z,15.02
2018-08-27T02:48:20.742Z,15.06
2018-08-27T02:49:20.774Z,15.09
2018-08-27T02:50:20.807Z,15.02
2018-08-27T02:51:20.842Z,14.99
2018-08-27T02:52:20.875Z,14.95
2018-08-27T02:53:20.908Z,14.92
2018-08-27T02:54:20.940Z,14.77
2018-08-27T02:55:20.975Z,14.80
2018-08-27T02:56:21.007Z,14.72
2018-08-27T02:57:21.041Z,14.70
2018-08-27T02:58:21.072Z,14.72
2018-08-27T02:59:21.105Z,14.70
2018-08-27T03:00:21.141Z,14.70
2018-08-27T03:01:21.170Z,14.72
2018-08-27T03:02:21.203Z,14.68
2018-08-27T03:03:21.239Z,14.72
2018-08-27T03:04:21.274Z,14.80
2018-08-27T03:05:21.341Z,14.77
2018-08-27T03:06:21.339Z,14.83
2018-08-27T03:07:21.369Z,14.91
2018-08-27T03:08:21.402Z,14.94
2018-08-27T03:09:21.436Z,14.99
2018-08-27T03:10:21.467Z,15.06
2018-08-27T03:11:21.504Z,15.02
2018-08-27T03:12:21.535Z,14.99
2018-08-27T03:13:21.567Z,14.98
2018-08-27T03:14:21.600Z,14.95
2018-08-27T03:15:21.632Z,14.99
2018-08-27T03:16:21.670Z,15.01
2018-08-27T03:17:21.698Z,14.96
2018-08-27T03:18:21.750Z,14.95
2018-08-27T03:19:21.763Z,14.92
2018-08-27T03:20:21.798Z,14.84
2018-08-27T03:21:21.829Z,14.84
2018-08-27T03:22:21.863Z,14.91
2018-08-27T03:23:21.897Z,14.94
2018-08-27T03:24:21.929Z,14.91
2018-08-27T03:25:21.962Z,15.03
2018-08-27T03:26:21.995Z,14.98
2018-08-27T03:27:22.033Z,15.10
2018-08-27T03:28:22.065Z,15.09
2018-08-27T03:29:22.094Z,15.14
2018-08-27T03:30:22.128Z,15.19
2018-08-27T03:31:22.160Z,15.17
2018-08-27T03:32:22.192Z,15.21
2018-08-27T03:33:22.225Z,15.14
2018-08-27T03:34:22.261Z,15.23
2018-08-27T03:35:22.291Z,15.20
2018-08-27T03:36:22.325Z,15.16
2018-08-27T03:37:22.358Z,15.19
2018-08-27T03:38:22.390Z,15.17
2018-08-27T03:39:22.422Z,15.14
2018-08-27T03:40:22.460Z,15.16
2018-08-27T03:41:22.490Z,15.13
2018-08-27T03:42:22.521Z,15.16
2018-08-27T03:43:22.555Z,15.11
2018-08-27T03:44:22.588Z,15.13
2018-08-27T03:45:22.620Z,15.27
2018-08-27T03:46:22.652Z,15.10
2018-08-27T03:47:22.685Z,15.11
2018-08-27T03:48:22.725Z,15.03
2018-08-27T03:49:22.751Z,15.16
2018-08-27T03:50:22.785Z,15.10
2018-08-27T03:51:22.818Z,15.09
2018-08-27T03:52:22.853Z,15.11
2018-08-27T03:53:22.882Z,15.06
2018-08-27T03:54:22.917Z,15.01
2018-08-27T03:55:22.951Z,15.07
2018-08-27T03:56:22.981Z,15.02
2018-08-27T03:57:23.015Z,15.16
2018-08-27T03:58:23.048Z,15.10
2018-08-27T03:59:23.082Z,15.09
2018-08-27T04:00:23.119Z,15.13
2018-08-27T04:01:23.146Z,15.01
2018-08-27T04:02:23.179Z,15.01
2018-08-27T04:03:23.212Z,14.98
2018-08-27T04:04:23.245Z,14.91
2018-08-27T04:05:23.366Z,14.92
2018-08-27T04:06:23.309Z,15.01
2018-08-27T04:07:23.346Z,14.99
2018-08-27T04:08:23.375Z,15.02
2018-08-27T04:09:23.408Z,15.01
2018-08-27T04:10:23.442Z,14.95
2018-08-27T04:11:23.473Z,14.84
2018-08-27T04:12:23.507Z,14.92
2018-08-27T04:13:23.540Z,14.86
2018-08-27T04:14:23.570Z,14.89
2018-08-27T04:15:23.605Z,15.03
2018-08-27T04:16:23.639Z,14.96
2018-08-27T04:17:23.670Z,14.98
2018-08-27T04:18:23.703Z,14.89
2018-08-27T04:19:23.739Z,14.94
2018-08-27T04:20:23.769Z,14.88
2018-08-27T04:21:23.800Z,14.92
2018-08-27T04:22:23.835Z,14.88
2018-08-27T04:23:23.866Z,14.86
2018-08-27T04:24:23.902Z,14.92
2018-08-27T04:25:23.933Z,14.70
2018-08-27T04:26:23.965Z,14.78
2018-08-27T04:27:23.999Z,14.73
2018-08-27T04:28:24.035Z,14.81
2018-08-27T04:29:24.064Z,14.68
2018-08-27T04:30:24.097Z,14.64
2018-08-27T04:31:24.130Z,14.60
2018-08-27T04:32:24.162Z,14.69
2018-08-27T04:33:24.194Z,14.60
2018-08-27T04:34:24.227Z,14.47
2018-08-27T04:35:24.261Z,14.60
2018-08-27T04:36:24.293Z,14.60
2018-08-27T04:37:24.325Z,14.61
2018-08-27T04:38:24.358Z,14.60
2018-08-27T04:39:24.392Z,14.64
2018-08-27T04:40:24.424Z,14.54
2018-08-27T04:41:24.455Z,14.57
2018-08-27T04:42:24.537Z,14.51
2018-08-27T04:43:24.522Z,14.58
2018-08-27T04:44:24.556Z,14.62
2018-08-27T04:45:24.588Z,14.64
2018-08-27T04:46:24.619Z,14.62
2018-08-27T04:47:24.652Z,14.61
2018-08-27T04:48:24.687Z,14.58
2018-08-27T04:49:24.717Z,14.58
2018-08-27T04:50:24.753Z,14.65
2018-08-27T04:51:24.783Z,14.69
2018-08-27T04:52:24.821Z,14.68
2018-08-27T04:53:24.847Z,14.62
2018-08-27T04:54:24.881Z,14.73
2018-08-27T04:55:24.914Z,14.70
2018-08-27T04:56:24.946Z,14.72
2018-08-27T04:57:24.978Z,14.77
2018-08-27T04:58:25.012Z,14.68
2018-08-27T04:59:25.043Z,14.62
2018-08-27T05:00:25.076Z,14.61
2018-08-27T05:01:25.109Z,14.50
2018-08-27T05:02:25.141Z,14.61
2018-08-27T05:03:25.176Z,14.64
2018-08-27T05:04:25.209Z,14.68
2018-08-27T05:05:25.238Z,14.69
2018-08-27T05:06:25.270Z,14.70
2018-08-27T05:07:25.305Z,14.77
2018-08-27T05:08:25.337Z,14.77
2018-08-27T05:09:25.369Z,14.80
2018-08-27T05:10:25.402Z,14.80
2018-08-27T05:11:25.435Z,14.75
2018-08-27T05:12:25.468Z,14.68
2018-08-27T05:13:25.501Z,14.72
2018-08-27T05:14:25.532Z,14.64
2018-08-27T05:15:25.564Z,14.77
2018-08-27T05:16:25.598Z,14.73
2018-08-27T05:17:25.629Z,14.68
2018-08-27T05:18:25.662Z,14.72
2018-08-27T05:19:25.696Z,14.72
2018-08-27T05:20:25.732Z,14.69
2018-08-27T05:21:25.761Z,14.61
2018-08-27T05:22:25.793Z,14.58
2018-08-27T05:23:25.826Z,14.73
2018-08-27T05:24:25.858Z,14.58
2018-08-27T05:25:25.891Z,14.57
2018-08-27T05:26:25.926Z,14.69
2018-08-27T05:27:25.957Z,14.68
2018-08-27T05:28:25.989Z,14.72
2018-08-27T05:29:26.022Z,14.84
2018-08-27T05:30:26.107Z,14.91
2018-08-27T05:31:26.175Z,14.91
2018-08-27T05:32:26.121Z,14.96
2018-08-27T05:33:26.153Z,15.02
2018-08-27T05:34:26.188Z,15.11
2018-08-27T05:35:26.219Z,15.25
2018-08-27T05:36:26.252Z,15.25
2018-08-27T05:37:26.285Z,15.31
2018-08-27T05:38:26.351Z,15.35
2018-08-27T05:39:26.353Z,15.44
2018-08-27T05:40:26.384Z,15.59
2018-08-27T05:41:26.416Z,15.74
2018-08-27T05:42:26.448Z,15.83
2018-08-27T05:43:26.482Z,15.90
2018-08-27T05:44:26.523Z,15.94
2018-08-27T05:45:26.548Z,16.07
2018-08-27T05:46:26.581Z,16.12
2018-08-27T05:47:26.616Z,16.27
2018-08-27T05:48:26.672Z,16.28
2018-08-27T05:49:26.684Z,16.48
2018-08-27T05:50:26.715Z,16.41
2018-08-27T05:51:26.747Z,16.50
2018-08-27T05:52:26.792Z,16.56
2018-08-27T05:53:26.813Z,16.73
2018-08-27T05:54:26.850Z,16.83
2018-08-27T05:55:26.881Z,16.96
2018-08-27T05:56:26.914Z,16.98
2018-08-27T05:57:26.949Z,17.15
2018-08-27T05:58:26.982Z,17.16
2018-08-27T05:59:27.016Z,17.23
2018-08-27T06:00:27.049Z,17.26
2018-08-27T06:01:27.145Z,17.33
2018-08-27T06:02:27.120Z,17.37
2018-08-27T06:03:27.151Z,17.51
2018-08-27T06:04:27.185Z,17.66
2018-08-27T06:05:27.219Z,17.70
2018-08-27T06:06:27.252Z,17.75
2018-08-27T06:07:27.286Z,17.56
2018-08-27T06:08:27.321Z,17.62
2018-08-27T06:09:27.353Z,17.63
2018-08-27T06:10:27.390Z,17.71
2018-08-27T06:11:27.422Z,17.66
2018-08-27T06:12:27.465Z,17.74
2018-08-27T06:13:27.491Z,17.74
2018-08-27T06:14:27.526Z,17.86
2018-08-27T06:15:27.560Z,17.84
2018-08-27T06:16:27.601Z,17.86
2018-08-27T06:17:27.628Z,17.87
2018-08-27T06:18:27.662Z,17.74
2018-08-27T06:19:27.717Z,17.72
2018-08-27T06:20:27.732Z,17.59
2018-08-27T06:21:27.766Z,17.62
2018-08-27T06:22:27.880Z,17.71
2018-08-27T06:23:27.836Z,17.70
2018-08-27T06:24:27.872Z,17.84
2018-08-27T06:25:27.905Z,17.96
2018-08-27T06:26:27.937Z,17.93
2018-08-27T06:27:27.973Z,17.96
2018-08-27T06:28:28.008Z,18.10
2018-08-27T06:29:28.041Z,18.10
2018-08-27T06:30:28.076Z,18.18
2018-08-27T06:31:28.342Z,18.08
2018-08-27T06:32:28.169Z,18.25
2018-08-27T06:33:28.179Z,18.29
2018-08-27T06:34:28.214Z,18.36
2018-08-27T06:35:28.259Z,18.32
2018-08-27T06:36:28.284Z,18.37
2018-08-27T06:37:28.323Z,18.52
2018-08-27T06:38:28.356Z,18.63
2018-08-27T06:39:28.391Z,18.70
2018-08-27T06:40:28.426Z,18.84
2018-08-27T06:41:28.463Z,19.00
2018-08-27T06:42:28.494Z,19.19
2018-08-27T06:43:28.529Z,19.18
2018-08-27T06:44:28.631Z,19.06
2018-08-27T06:45:28.600Z,19.08
2018-08-27T06:46:28.635Z,19.10
2018-08-27T06:47:28.673Z,19.39
2018-08-27T06:48:28.708Z,19.40
2018-08-27T06:49:28.739Z,19.51
2018-08-27T06:50:28.777Z,19.48
2018-08-27T06:51:28.817Z,19.40
2018-08-27T06:52:28.848Z,19.50
2018-08-27T06:53:28.883Z,19.50
2018-08-27T06:54:28.921Z,19.63
2018-08-27T06:55:28.955Z,19.76
2018-08-27T06:56:28.991Z,19.73
2018-08-27T06:57:29.026Z,19.92
2018-08-27T06:58:29.062Z,20.02
2018-08-27T06:59:29.099Z,20.11
2018-08-27T07:00:29.136Z,20.28
2018-08-27T07:01:29.170Z,20.31
2018-08-27T07:02:29.206Z,20.50
2018-08-27T07:03:29.244Z,20.58
2018-08-27T07:04:29.278Z,20.61
2018-08-27T07:05:29.318Z,20.82
2018-08-27T07:06:29.350Z,20.89
2018-08-27T07:07:29.391Z,20.80
2018-08-27T07:08:29.424Z,20.77
2018-08-27T07:09:29.460Z,20.76
2018-08-27T07:10:29.518Z,20.79
2018-08-27T07:11:29.556Z,20.80
2018-08-27T07:12:29.571Z,20.92
2018-08-27T07:13:29.605Z,20.82
2018-08-27T07:14:29.644Z,20.73
2018-08-27T07:15:29.680Z,20.77
2018-08-27T07:16:29.717Z,20.85
2018-08-27T07:17:29.753Z,20.94
2018-08-27T07:18:29.791Z,21.09
2018-08-27T07:19:29.827Z,21.16
2018-08-27T07:20:29.865Z,21.56
2018-08-27T07:21:29.900Z,21.67
2018-08-27T07:22:29.936Z,21.69
2018-08-27T07:23:29.974Z,21.90
2018-08-27T07:24:30.012Z,22.12
2018-08-27T07:25:30.050Z,22.15
2018-08-27T07:26:30.706Z,22.21
2018-08-27T07:27:30.180Z,22.43
2018-08-27T07:28:30.168Z,22.65
2018-08-27T07:29:30.198Z,22.80
2018-08-27T07:30:30.236Z,23.01
2018-08-27T07:31:30.274Z,23.07
2018-08-27T07:32:30.314Z,23.32
2018-08-27T07:33:30.346Z,23.38
2018-08-27T07:34:30.386Z,23.43
2018-08-27T07:35:30.448Z,23.51
2018-08-27T07:36:30.542Z,23.42
2018-08-27T07:37:30.499Z,23.47
2018-08-27T07:38:30.537Z,23.42
2018-08-27T07:39:30.576Z,23.28
2018-08-27T07:40:30.613Z,23.43
2018-08-27T07:41:30.654Z,23.70
2018-08-27T07:42:30.690Z,24.15
2018-08-27T07:43:30.731Z,24.06
2018-08-27T07:44:30.766Z,23.55
2018-08-27T07:45:30.803Z,23.85
2018-08-27T07:46:30.845Z,23.79
2018-08-27T07:47:30.881Z,23.53
2018-08-27T07:48:30.921Z,23.65
2018-08-27T07:49:30.981Z,23.79
2018-08-27T07:50:31.014Z,24.00
2018-08-27T07:51:31.036Z,24.16
2018-08-27T07:52:31.104Z,24.47
2018-08-27T07:53:31.113Z,24.60
2018-08-27T07:54:31.153Z,24.73
2018-08-27T07:55:31.191Z,24.88
2018-08-27T07:56:31.232Z,25.08
2018-08-27T07:57:31.269Z,25.18
2018-08-27T07:58:31.348Z,25.27
2018-08-27T07:59:31.348Z,25.17
2018-08-27T08:00:31.388Z,25.15
2018-08-27T08:01:31.428Z,25.35
2018-08-27T08:02:31.464Z,25.45
2018-08-27T08:03:31.504Z,25.43
2018-08-27T08:04:31.548Z,25.43
2018-08-27T08:05:31.584Z,25.42
2018-08-27T08:06:31.620Z,25.58
2018-08-27T08:07:31.662Z,25.67
2018-08-27T08:08:31.702Z,25.64
2018-08-27T08:09:31.742Z,25.57
2018-08-27T08:10:31.780Z,25.73
2018-08-27T08:11:31.820Z,25.73
2018-08-27T08:12:31.866Z,25.87
2018-08-27T08:13:31.899Z,25.79
2018-08-27T08:14:31.940Z,25.73
2018-08-27T08:15:31.981Z,25.90
2018-08-27T08:16:32.020Z,25.99
2018-08-27T08:17:32.063Z,26.07
2018-08-27T08:18:32.099Z,26.35
2018-08-27T08:19:32.141Z,26.51
2018-08-27T08:20:32.180Z,26.69
2018-08-27T08:21:32.220Z,26.66
2018-08-27T08:22:32.267Z,26.94
2018-08-27T08:23:32.304Z,26.92
2018-08-27T08:24:32.342Z,26.66
2018-08-27T08:25:32.381Z,26.50
2018-08-27T08:26:32.421Z,26.43
2018-08-27T08:27:32.462Z,26.55
2018-08-27T08:28:32.502Z,26.60
2018-08-27T08:29:32.545Z,26.85
2018-08-27T08:30:32.585Z,27.04
2018-08-27T08:31:32.624Z,27.32
2018-08-27T08:32:32.665Z,27.44
2018-08-27T08:33:32.708Z,27.69
2018-08-27T08:34:32.746Z,27.62
2018-08-27T08:35:32.793Z,27.77
2018-08-27T08:36:32.828Z,27.69
2018-08-27T08:37:32.868Z,27.94
2018-08-27T08:38:32.910Z,27.00
2018-08-27T08:39:32.950Z,27.29
2018-08-27T08:40:32.995Z,27.44
2018-08-27T08:41:33.033Z,27.27
2018-08-27T08:42:33.074Z,27.44
2018-08-27T08:43:33.121Z,27.17
2018-08-27T08:44:33.155Z,26.81
2018-08-27T08:45:33.197Z,26.80
2018-08-27T08:46:33.239Z,26.70
2018-08-27T08:47:33.281Z,26.84
2018-08-27T08:48:33.322Z,27.00
2018-08-27T08:49:33.363Z,27.09
2018-08-27T08:50:33.404Z,27.32
2018-08-27T08:51:33.446Z,27.28
2018-08-27T08:52:33.486Z,27.22
2018-08-27T08:53:33.633Z,26.92
2018-08-27T08:54:33.568Z,27.02
2018-08-27T08:55:33.611Z,27.21
2018-08-27T08:56:33.653Z,26.97
2018-08-27T08:57:33.692Z,26.69
2018-08-27T08:58:33.734Z,26.72
2018-08-27T08:59:33.776Z,26.87
2018-08-27T09:00:33.821Z,26.81
2018-08-27T09:01:33.866Z,26.88
2018-08-27T09:02:33.897Z,26.84
2018-08-27T09:03:33.939Z,26.33
2018-08-27T09:04:33.981Z,26.05
2018-08-27T09:05:34.021Z,26.18
2018-08-27T09:06:34.062Z,26.15
2018-08-27T09:07:34.103Z,26.29
2018-08-27T09:08:34.168Z,26.33
2018-08-27T09:09:34.186Z,26.25
2018-08-27T09:10:34.225Z,26.10
2018-08-27T09:11:34.282Z,25.85
2018-08-27T09:12:34.307Z,26.01
2018-08-27T09:13:34.348Z,26.01
2018-08-27T09:14:34.389Z,26.05
2018-08-27T09:15:34.430Z,26.02
2018-08-27T09:16:34.489Z,25.62
2018-08-27T09:17:34.553Z,25.77
2018-08-27T09:18:34.553Z,25.30
2018-08-27T09:19:34.592Z,25.39
2018-08-27T09:20:34.633Z,25.14
2018-08-27T09:21:34.671Z,25.14
2018-08-27T09:22:34.712Z,25.25
2018-08-27T09:23:34.798Z,25.28
2018-08-27T09:24:34.794Z,25.43
2018-08-27T09:25:34.833Z,25.47
2018-08-27T09:26:34.873Z,25.62
2018-08-27T09:27:34.915Z,25.70
2018-08-27T09:28:34.954Z,25.72
2018-08-27T09:29:34.994Z,25.80
2018-08-27T09:30:35.034Z,25.60
2018-08-27T09:31:35.074Z,25.42
2018-08-27T09:32:35.115Z,25.10
2018-08-27T09:33:35.154Z,24.96
2018-08-27T09:34:35.194Z,25.03
2018-08-27T09:35:35.236Z,25.23
2018-08-27T09:36:35.278Z,25.24
2018-08-27T09:37:35.420Z,25.10
2018-08-27T09:38:35.355Z,25.24
2018-08-27T09:39:35.395Z,25.40
2018-08-27T09:40:35.434Z,25.42
2018-08-27T09:41:35.544Z,25.42
2018-08-27T09:42:35.514Z,25.36
2018-08-27T09:43:35.554Z,25.40
2018-08-27T09:44:35.593Z,25.55
2018-08-27T09:45:35.634Z,25.57
2018-08-27T09:46:35.674Z,25.61
2018-08-27T09:47:35.714Z,25.73
2018-08-27T09:48:35.754Z,25.67
2018-08-27T09:49:35.793Z,25.67
2018-08-27T09:50:35.834Z,25.75
2018-08-27T09:51:35.874Z,25.50
2018-08-27T09:52:35.922Z,25.51
2018-08-27T09:53:35.953Z,25.45
2018-08-27T09:54:35.993Z,25.36
2018-08-27T09:55:36.033Z,25.25
2018-08-27T09:56:36.074Z,25.27
2018-08-27T09:57:36.112Z,25.32
2018-08-27T09:58:36.209Z,25.33
2018-08-27T09:59:36.192Z,25.25
2018-08-27T10:00:36.232Z,25.13
2018-08-27T10:01:36.271Z,25.18
2018-08-27T10:02:36.313Z,25.09
2018-08-27T10:03:36.353Z,25.03
2018-08-27T10:04:36.391Z,25.09
2018-08-27T10:05:36.430Z,25.23
2018-08-27T10:06:36.468Z,25.28
2018-08-27T10:07:36.509Z,25.27
2018-08-27T10:08:36.549Z,25.15
2018-08-27T10:09:36.589Z,25.17
2018-08-27T10:10:36.631Z,25.18
2018-08-27T10:11:36.668Z,25.24
2018-08-27T10:12:36.711Z,25.24
2018-08-27T10:13:36.748Z,25.17
2018-08-27T10:14:36.787Z,25.09
2018-08-27T10:15:36.828Z,25.15
2018-08-27T10:16:36.872Z,24.98
2018-08-27T10:17:36.911Z,25.09
2018-08-27T10:18:36.943Z,25.25
2018-08-27T10:19:36.986Z,25.38
2018-08-27T10:20:37.026Z,25.55
2018-08-27T10:21:37.062Z,25.72
2018-08-27T10:22:37.228Z,25.50
2018-08-27T10:23:37.143Z,25.45
2018-08-27T10:24:37.183Z,25.61
2018-08-27T10:25:37.221Z,25.67
2018-08-27T10:26:37.411Z,25.82
2018-08-27T10:27:37.302Z,25.87
2018-08-27T10:28:37.342Z,25.98
2018-08-27T10:29:37.381Z,26.33
2018-08-27T10:30:37.422Z,26.67
2018-08-27T10:31:37.464Z,26.82
2018-08-27T10:32:37.503Z,26.55
2018-08-27T10:33:37.543Z,26.62
2018-08-27T10:34:37.582Z,26.80
2018-08-27T10:35:37.623Z,26.77
2018-08-27T10:36:37.664Z,27.10
2018-08-27T10:37:37.704Z,26.82
2018-08-27T10:38:37.745Z,26.75
2018-08-27T10:39:37.788Z,27.00
2018-08-27T10:40:37.827Z,27.00
2018-08-27T10:41:37.866Z,27.06
2018-08-27T10:42:37.952Z,27.04
2018-08-27T10:43:37.946Z,27.13
2018-08-27T10:44:37.988Z,27.46
2018-08-27T10:45:38.030Z,27.43
2018-08-27T10:46:38.070Z,27.49
2018-08-27T10:47:38.109Z,27.46
2018-08-27T10:48:38.151Z,27.55
2018-08-27T10:49:38.192Z,27.55
2018-08-27T10:50:38.234Z,27.77
2018-08-27T10:51:38.275Z,27.96
2018-08-27T10:52:38.317Z,27.47
2018-08-27T10:53:38.355Z,27.59
2018-08-27T10:54:38.395Z,27.92
2018-08-27T10:55:38.446Z,27.94
2018-08-27T10:56:38.479Z,27.84
2018-08-27T10:57:38.547Z,27.84
2018-08-27T10:58:38.562Z,27.93
2018-08-27T10:59:38.600Z,27.97
2018-08-27T11:00:38.643Z,28.03
2018-08-27T11:01:38.683Z,28.22
2018-08-27T11:02:38.724Z,28.21
2018-08-27T11:03:38.770Z,27.94
2018-08-27T11:04:38.809Z,27.65
2018-08-27T11:05:38.848Z,27.85
2018-08-27T11:06:38.899Z,27.90
2018-08-27T11:07:38.937Z,27.75
2018-08-27T11:08:38.975Z,27.92
2018-08-27T11:09:39.016Z,28.02
2018-08-27T11:10:39.182Z,28.59
2018-08-27T11:11:39.100Z,29.04
2018-08-27T11:12:39.160Z,29.05
2018-08-27T11:13:39.384Z,29.27
2018-08-27T11:14:39.453Z,28.80
2018-08-27T11:15:39.266Z,28.76
2018-08-27T11:18:39.394Z,29.21
2018-08-27T11:19:39.479Z,29.67
2018-08-27T11:20:39.746Z,29.61
2018-08-27T11:21:39.518Z,29.67
2018-08-27T11:22:39.561Z,29.76
2018-08-27T11:23:39.605Z,29.78
2018-08-27T11:24:39.648Z,29.70
2018-08-27T11:25:39.689Z,30.19
2018-08-27T11:26:39.843Z,30.55
2018-08-27T11:27:39.776Z,30.89
2018-08-27T11:28:39.820Z,30.70
2018-08-27T11:29:39.863Z,30.65
2018-08-27T11:30:39.907Z,30.72
2018-08-27T11:31:39.950Z,30.69
2018-08-27T11:32:39.999Z,30.82
2018-08-27T11:33:40.036Z,31.68
2018-08-27T11:34:40.080Z,31.96
2018-08-27T11:35:40.123Z,32.08
2018-08-27T11:36:40.171Z,31.93
2018-08-27T11:37:40.213Z,31.88
2018-08-27T11:38:40.257Z,32.45
2018-08-27T11:39:40.301Z,33.09
2018-08-27T11:40:40.345Z,33.22
2018-08-27T11:41:40.391Z,33.41
2018-08-27T11:42:40.435Z,33.56
2018-08-27T11:43:40.480Z,32.96
2018-08-27T11:44:40.530Z,32.65
2018-08-27T11:45:40.569Z,33.79
2018-08-27T11:46:40.615Z,34.19
2018-08-27T11:47:40.661Z,32.99
2018-08-27T11:48:40.713Z,32.63
2018-08-27T11:49:40.753Z,32.00
2018-08-27T11:50:40.893Z,31.96
2018-08-27T11:51:40.845Z,31.99
2018-08-27T11:52:40.894Z,32.03
2018-08-27T11:53:40.936Z,31.81
2018-08-27T11:54:40.984Z,31.93
2018-08-27T11:55:41.034Z,31.65
2018-08-27T11:56:41.075Z,31.95
2018-08-27T11:57:41.119Z,31.13
2018-08-27T11:58:41.207Z,31.62
2018-08-27T11:59:41.211Z,31.85
2018-08-27T12:00:41.257Z,31.29
2018-08-27T12:01:41.302Z,31.17
2018-08-27T12:02:41.346Z,31.19
2018-08-27T12:03:41.393Z,31.09
2018-08-27T12:04:41.438Z,30.51
2018-08-27T12:05:41.483Z,30.86
2018-08-27T12:06:41.530Z,31.06
2018-08-27T12:07:41.574Z,32.01
2018-08-27T12:08:41.620Z,31.76
2018-08-27T12:09:41.665Z,31.70
2018-08-27T12:10:41.709Z,31.26
2018-08-27T12:11:41.756Z,31.09
2018-08-27T12:12:41.803Z,31.12
2018-08-27T12:13:41.846Z,30.69
2018-08-27T12:14:41.891Z,32.06
2018-08-27T12:15:41.937Z,32.57
2018-08-27T12:16:42.003Z,32.87
2018-08-27T12:17:42.029Z,33.28
2018-08-27T12:18:42.074Z,33.39
2018-08-27T12:19:42.119Z,33.26
2018-08-27T12:20:42.165Z,32.45
2018-08-27T12:21:42.210Z,32.70
2018-08-27T12:22:42.278Z,32.29
2018-08-27T12:23:42.330Z,32.66
2018-08-27T12:24:42.349Z,33.51
2018-08-27T12:25:42.394Z,33.61
2018-08-27T12:26:42.441Z,33.84
2018-08-27T12:27:42.488Z,33.93
2018-08-27T12:28:42.533Z,33.87
2018-08-27T12:29:42.580Z,35.07
2018-08-27T12:30:42.663Z,36.38
2018-08-27T12:31:42.675Z,37.50
2018-08-27T12:32:42.723Z,37.51
2018-08-27T12:33:42.769Z,37.10
2018-08-27T12:34:42.819Z,37.28
2018-08-27T12:35:42.866Z,37.56
2018-08-27T12:36:42.914Z,37.43
2018-08-27T12:37:42.992Z,37.44
2018-08-27T12:38:43.014Z,36.95
2018-08-27T12:39:43.060Z,37.39
2018-08-27T12:40:43.248Z,37.67
2018-08-27T12:41:43.157Z,37.85
2018-08-27T12:42:43.206Z,38.88
2018-08-27T12:43:43.347Z,39.81
2018-08-27T12:44:43.305Z,38.90
2018-08-27T12:45:43.356Z,38.12
2018-08-27T12:46:43.403Z,36.65
2018-08-27T12:47:43.456Z,36.51
2018-08-27T12:49:43.575Z,36.50
2018-08-27T12:53:43.772Z,34.35
2018-08-27T12:54:43.802Z,33.34
2018-08-27T12:55:43.850Z,32.75
2018-08-27T12:56:43.904Z,32.15
2018-08-27T12:57:43.948Z,32.33
2018-08-27T12:58:44.049Z,32.07